Fri Langesund — ZDKQ8 — position and weather

sailwx.info

Track history (hours):
 
Tides and Currents Weather Stations Pressure Air Temp Water Temp Dewpoint Dewpoint Depression Visibility Wind Speed Wind Dir Waves Ship Positions

Fri Langesund

Last reported at 2014-Jul-28 13:31 UTC. Time now 2014-Jul-28 14:28 UTC.
Position N 55°52' E 012°50'.

Length 90 m; draft 3.5 m.

Type: Cargo ship. MMSI: 236111779.

Date/timePositionNaut miles runAvg speedWind from/ knotsBaromVisibWave heightAir tempDewpointWater temp
2014-Jul-28 13:31N 55°52' E 012°50'0 0.0
2014-Jul-28 12:31N 55°52' E 012°50'0 0.0
2014-Jul-28 11:31N 55°52' E 012°50'0 0.0
2014-Jul-28 10:31N 55°52' E 012°50'0 0.0
2014-Jul-28 09:31N 55°52' E 012°50'0 0.0
2014-Jul-28 08:31N 55°52' E 012°50'0 0.0
2014-Jul-28 07:31N 55°52' E 012°50'0 0.0
2014-Jul-28 06:31N 55°52' E 012°50'0 0.0
2014-Jul-28 05:31N 55°52' E 012°50'0 0.0
2014-Jul-28 04:31N 55°52' E 012°50'1 0.8
2014-Jul-28 03:33N 55°52' E 012°48'3 3.2
2014-Jul-28 02:33N 55°50' E 012°44'9 8.7
2014-Jul-28 01:33N 55°42' E 012°41'8 8.4
2014-Jul-28 00:33N 55°33' E 012°42'8 8.3
2014-Jul-27 23:33N 55°25' E 012°42'8 7.7
2014-Jul-27 22:33N 55°18' E 012°45'9 8.7
2014-Jul-27 21:33N 55°13' E 012°58'9 9.2
2014-Jul-27 20:33N 55°07' E 013°10'9 9.3
2014-Jul-27 19:33N 54°59' E 013°19'10 9.8
2014-Jul-27 18:33N 54°51' E 013°29'9 9.5
2014-Jul-27 17:33N 54°43' E 013°38'1010.1
2014-Jul-27 16:33N 54°35' E 013°48'1210.7
2014-Jul-27 15:27N 54°26' E 014°00'2111.0
2014-Jul-27 13:32N 54°06' E 014°14'1010.6
2014-Jul-27 12:33N 53°56' E 014°17'2 2.1
2014-Jul-27 11:31N 53°54' E 014°16'0 0.0
2014-Jul-27 10:31N 53°54' E 014°16'0 0.0
2014-Jul-27 09:31N 53°54' E 014°16'0 0.1
2014-Jul-27 08:31N 53°54' E 014°16'0 0.0
2014-Jul-27 07:31N 53°54' E 014°16'0 0.0
2014-Jul-27 06:31N 53°54' E 014°16'0 0.0
2014-Jul-27 05:31N 53°54' E 014°16'0 0.0
2014-Jul-27 04:31N 53°54' E 014°16'0 0.0
2014-Jul-27 03:31N 53°54' E 014°16'0 0.3
2014-Jul-27 02:33N 53°54' E 014°16'7 6.5
2014-Jul-27 01:33N 54°00' E 014°15'1010.2
2014-Jul-27 00:33N 54°10' E 014°09'1010.2
2014-Jul-26 23:33N 54°19' E 014°02'1110.3
2014-Jul-26 22:28N 54°29' E 013°53'1910.1
2014-Jul-26 20:33N 54°42' E 013°28'23 9.7
2014-Jul-26 18:14N 54°37' E 012°50'7 9.7
2014-Jul-26 17:33N 54°35' E 012°39'9 9.4
2014-Jul-26 16:33N 54°32' E 012°24'8 8.5
2014-Jul-26 15:33N 54°26' E 012°12'9 9.1
2014-Jul-26 14:33N 54°25' E 011°57'10 9.8
2014-Jul-26 13:33N 54°26' E 011°40'1010.2
2014-Jul-26 12:33N 54°31' E 011°24'10 9.9
2014-Jul-26 11:33N 54°34' E 011°08'1010.1
2014-Jul-26 10:33N 54°34' E 010°51'53 6.6
2014-Jul-26 02:24N 54°11' E 009°28'9 7.8
2014-Jul-26 01:17N 54°04' E 009°19'6 8.5
2014-Jul-26 00:32N 53°58' E 009°16'5 4.7
2014-Jul-25 23:31N 53°54' E 009°10'1 1.3
2014-Jul-25 22:33N 53°54' E 009°09'1 1.4
2014-Jul-25 21:33N 53°53' E 009°07'5 4.8
2014-Jul-25 20:33N 53°51' E 008°59'10 9.7
2014-Jul-25 19:33N 53°52' E 008°43'10 9.6
2014-Jul-25 18:33N 53°58' E 008°30'10 9.9
2014-Jul-25 17:33N 53°60' E 008°13'1010.2
2014-Jul-25 16:33N 53°58' E 007°56'10 9.5
2014-Jul-25 15:33N 53°56' E 007°40'47 9.4
2014-Jul-25 10:32N 53°45' E 006°23'1010.3
2014-Jul-25 09:32N 53°42' E 006°06'1010.7
2014-Jul-25 08:33N 53°38' E 005°50'1110.9
2014-Jul-25 07:33N 53°35' E 005°32'1111.0
2014-Jul-25 06:33N 53°31' E 005°15'1111.2
2014-Jul-25 05:33N 53°27' E 004°57'1111.3
2014-Jul-25 04:33N 53°21' E 004°41'1212.3
2014-Jul-25 03:33N 53°10' E 004°31'1212.1
2014-Jul-25 02:33N 52°60' E 004°21'1211.7
2014-Jul-25 01:33N 52°49' E 004°12'1111.3
2014-Jul-25 00:33N 52°41' E 003°60'1010.5
2014-Jul-24 23:33N 52°33' E 003°49'1010.0
2014-Jul-24 22:33N 52°25' E 003°38'19 9.4
2014-Jul-24 20:33N 52°08' E 003°26'10 9.0
2014-Jul-24 19:30N 51°58' E 003°23'8 8.2
2014-Jul-24 18:31N 51°51' E 003°20'8 7.9
2014-Jul-24 17:33N 51°43' E 003°17'9 9.2
2014-Jul-24 16:33N 51°35' E 003°24'1110.6
2014-Jul-24 15:33N 51°26' E 003°34'6 6.0
2014-Jul-24 14:33N 51°27' E 003°43'0 0.0
2014-Jul-24 13:32N 51°27' E 003°43'0 0.0
2014-Jul-24 12:32N 51°27' E 003°43'0 0.0
2014-Jul-24 11:32N 51°27' E 003°43'0 0.0
2014-Jul-24 10:32N 51°27' E 003°43'0 0.0
2014-Jul-24 09:32N 51°27' E 003°43'0 0.0
2014-Jul-24 08:32N 51°27' E 003°43'0 0.0
2014-Jul-24 07:32N 51°27' E 003°43'0 0.0
2014-Jul-24 06:32N 51°27' E 003°43'0 0.0
2014-Jul-24 05:32N 51°27' E 003°43'0 0.0
2014-Jul-24 04:29N 51°27' E 003°43'0 0.0
2014-Jul-24 03:32N 51°27' E 003°43'0 0.0
2014-Jul-24 02:32N 51°27' E 003°43'0 0.0
2014-Jul-24 01:32N 51°27' E 003°43'0 0.0
2014-Jul-24 00:32N 51°27' E 003°43'0 0.0
2014-Jul-23 23:29N 51°27' E 003°43'0 0.0
2014-Jul-23 22:32N 51°27' E 003°43'0 0.0
2014-Jul-23 21:32N 51°27' E 003°43'0 0.0
2014-Jul-23 20:32N 51°27' E 003°43'0 0.0
2014-Jul-23 19:32N 51°27' E 003°43'0 0.0
2014-Jul-23 18:32N 51°27' E 003°43'0 0.0
2014-Jul-23 17:32N 51°27' E 003°43'0 0.0
2014-Jul-23 16:32N 51°27' E 003°43'0 0.0
2014-Jul-23 15:32N 51°27' E 003°43'0 0.0
2014-Jul-23 14:32N 51°27' E 003°43'0 0.0
2014-Jul-23 13:32N 51°27' E 003°43'0 0.0
2014-Jul-23 12:32N 51°27' E 003°43'0 0.0
2014-Jul-23 11:32N 51°27' E 003°43'0 0.0
2014-Jul-23 10:29N 51°27' E 003°43'0 0.0
2014-Jul-23 09:32N 51°27' E 003°43'2 1.7
2014-Jul-23 08:34N 51°27' E 003°41'1212.0
2014-Jul-23 07:33N 51°24' E 003°22'1210.9
2014-Jul-23 06:28N 51°24' E 003°03'9 9.6
2014-Jul-23 05:33N 51°22' E 002°50'9 9.1
2014-Jul-23 04:34N 51°22' E 002°35'9 9.2
2014-Jul-23 03:33N 51°19' E 002°21'10 9.8
2014-Jul-23 02:33N 51°14' E 002°07'1110.2
2014-Jul-23 01:31N 51°09' E 001°53'1010.5
2014-Jul-23 00:33N 51°02' E 001°41'1111.3
2014-Jul-22 23:33N 50°54' E 001°29'  
2014-Jul-20 14:27N 50°04' E 001°23'24 0.7
2014-Jul-19 05:34N 50°19' E 000°54'10 8.9
2014-Jul-19 04:26N 50°26' E 000°44'8 9.0
2014-Jul-19 03:34N 50°34' E 000°41'7 7.0
2014-Jul-19 02:33N 50°40' E 000°48'9 7.8
2014-Jul-19 01:25N 50°45' E 000°60'9 9.4
2014-Jul-19 00:24N 50°51' E 001°11'911.2
2014-Jul-18 23:34N 50°58' E 001°22'1211.7
2014-Jul-18 22:33N 51°06' E 001°35'10 9.9
2014-Jul-18 21:34N 51°14' E 001°45'8 8.0
2014-Jul-18 20:34N 51°20' E 001°52'8 7.8
2014-Jul-18 19:34N 51°27' E 001°58'8 7.8
2014-Jul-18 18:33N 51°33' E 002°06'8 7.9
2014-Jul-18 17:34N 51°39' E 002°14'  
Track history (hours):
 
Tides and Currents Weather Stations Pressure Air Temp Water Temp Dewpoint Dewpoint Depression Visibility Wind Speed Wind Dir Waves Ship Positions

Fri Langesund

Last reported at 2014-Jul-28 13:31 UTC. Time now 2014-Jul-28 14:28 UTC.
Position N 55°52' E 012°50'.

Length 90 m; draft 3.5 m.

Type: Cargo ship. MMSI: 236111779.

Date/timePositionNaut miles runAvg speedWind from/ knotsBaromVisibWave heightAir tempDewpointWater temp
2014-Jul-28 13:31N 55°52' E 012°50'0 0.0
2014-Jul-28 12:31N 55°52' E 012°50'0 0.0
2014-Jul-28 11:31N 55°52' E 012°50'0 0.0
2014-Jul-28 10:31N 55°52' E 012°50'0 0.0
2014-Jul-28 09:31N 55°52' E 012°50'0 0.0
2014-Jul-28 08:31N 55°52' E 012°50'0 0.0
2014-Jul-28 07:31N 55°52' E 012°50'0 0.0
2014-Jul-28 06:31N 55°52' E 012°50'0 0.0
2014-Jul-28 05:31N 55°52' E 012°50'0 0.0
2014-Jul-28 04:31N 55°52' E 012°50'1 0.8
2014-Jul-28 03:33N 55°52' E 012°48'3 3.2
2014-Jul-28 02:33N 55°50' E 012°44'9 8.7
2014-Jul-28 01:33N 55°42' E 012°41'8 8.4
2014-Jul-28 00:33N 55°33' E 012°42'8 8.3
2014-Jul-27 23:33N 55°25' E 012°42'8 7.7
2014-Jul-27 22:33N 55°18' E 012°45'9 8.7
2014-Jul-27 21:33N 55°13' E 012°58'9 9.2
2014-Jul-27 20:33N 55°07' E 013°10'9 9.3
2014-Jul-27 19:33N 54°59' E 013°19'10 9.8
2014-Jul-27 18:33N 54°51' E 013°29'9 9.5
2014-Jul-27 17:33N 54°43' E 013°38'1010.1
2014-Jul-27 16:33N 54°35' E 013°48'1210.7
2014-Jul-27 15:27N 54°26' E 014°00'2111.0
2014-Jul-27 13:32N 54°06' E 014°14'1010.6
2014-Jul-27 12:33N 53°56' E 014°17'2 2.1
2014-Jul-27 11:31N 53°54' E 014°16'0 0.0
2014-Jul-27 10:31N 53°54' E 014°16'0 0.0
2014-Jul-27 09:31N 53°54' E 014°16'0 0.1
2014-Jul-27 08:31N 53°54' E 014°16'0 0.0
2014-Jul-27 07:31N 53°54' E 014°16'0 0.0
2014-Jul-27 06:31N 53°54' E 014°16'0 0.0
2014-Jul-27 05:31N 53°54' E 014°16'0 0.0
2014-Jul-27 04:31N 53°54' E 014°16'0 0.0
2014-Jul-27 03:31N 53°54' E 014°16'0 0.3
2014-Jul-27 02:33N 53°54' E 014°16'7 6.5
2014-Jul-27 01:33N 54°00' E 014°15'1010.2
2014-Jul-27 00:33N 54°10' E 014°09'1010.2
2014-Jul-26 23:33N 54°19' E 014°02'1110.3
2014-Jul-26 22:28N 54°29' E 013°53'1910.1
2014-Jul-26 20:33N 54°42' E 013°28'23 9.7
2014-Jul-26 18:14N 54°37' E 012°50'7 9.7
2014-Jul-26 17:33N 54°35' E 012°39'9 9.4
2014-Jul-26 16:33N 54°32' E 012°24'8 8.5
2014-Jul-26 15:33N 54°26' E 012°12'9 9.1
2014-Jul-26 14:33N 54°25' E 011°57'10 9.8
2014-Jul-26 13:33N 54°26' E 011°40'1010.2
2014-Jul-26 12:33N 54°31' E 011°24'10 9.9
2014-Jul-26 11:33N 54°34' E 011°08'1010.1
2014-Jul-26 10:33N 54°34' E 010°51'53 6.6
2014-Jul-26 02:24N 54°11' E 009°28'9 7.8
2014-Jul-26 01:17N 54°04' E 009°19'6 8.5
2014-Jul-26 00:32N 53°58' E 009°16'5 4.7
2014-Jul-25 23:31N 53°54' E 009°10'1 1.3
2014-Jul-25 22:33N 53°54' E 009°09'1 1.4
2014-Jul-25 21:33N 53°53' E 009°07'5 4.8
2014-Jul-25 20:33N 53°51' E 008°59'10 9.7
2014-Jul-25 19:33N 53°52' E 008°43'10 9.6
2014-Jul-25 18:33N 53°58' E 008°30'10 9.9
2014-Jul-25 17:33N 53°60' E 008°13'1010.2
2014-Jul-25 16:33N 53°58' E 007°56'10 9.5
2014-Jul-25 15:33N 53°56' E 007°40'47 9.4
2014-Jul-25 10:32N 53°45' E 006°23'1010.3
2014-Jul-25 09:32N 53°42' E 006°06'1010.7
2014-Jul-25 08:33N 53°38' E 005°50'1110.9
2014-Jul-25 07:33N 53°35' E 005°32'1111.0
2014-Jul-25 06:33N 53°31' E 005°15'1111.2
2014-Jul-25 05:33N 53°27' E 004°57'1111.3
2014-Jul-25 04:33N 53°21' E 004°41'1212.3
2014-Jul-25 03:33N 53°10' E 004°31'1212.1
2014-Jul-25 02:33N 52°60' E 004°21'1211.7
2014-Jul-25 01:33N 52°49' E 004°12'1111.3
2014-Jul-25 00:33N 52°41' E 003°60'1010.5
2014-Jul-24 23:33N 52°33' E 003°49'1010.0
2014-Jul-24 22:33N 52°25' E 003°38'19 9.4
2014-Jul-24 20:33N 52°08' E 003°26'10 9.0
2014-Jul-24 19:30N 51°58' E 003°23'8 8.2
2014-Jul-24 18:31N 51°51' E 003°20'8 7.9
2014-Jul-24 17:33N 51°43' E 003°17'9 9.2
2014-Jul-24 16:33N 51°35' E 003°24'1110.6
2014-Jul-24 15:33N 51°26' E 003°34'6 6.0
2014-Jul-24 14:33N 51°27' E 003°43'0 0.0
2014-Jul-24 13:32N 51°27' E 003°43'0 0.0
2014-Jul-24 12:32N 51°27' E 003°43'0 0.0
2014-Jul-24 11:32N 51°27' E 003°43'0 0.0
2014-Jul-24 10:32N 51°27' E 003°43'0 0.0
2014-Jul-24 09:32N 51°27' E 003°43'0 0.0
2014-Jul-24 08:32N 51°27' E 003°43'0 0.0
2014-Jul-24 07:32N 51°27' E 003°43'0 0.0
2014-Jul-24 06:32N 51°27' E 003°43'0 0.0
2014-Jul-24 05:32N 51°27' E 003°43'0 0.0
2014-Jul-24 04:29N 51°27' E 003°43'0 0.0
2014-Jul-24 03:32N 51°27' E 003°43'0 0.0
2014-Jul-24 02:32N 51°27' E 003°43'0 0.0
2014-Jul-24 01:32N 51°27' E 003°43'0 0.0
2014-Jul-24 00:32N 51°27' E 003°43'0 0.0
2014-Jul-23 23:29N 51°27' E 003°43'0 0.0
2014-Jul-23 22:32N 51°27' E 003°43'0 0.0
2014-Jul-23 21:32N 51°27' E 003°43'0 0.0
2014-Jul-23 20:32N 51°27' E 003°43'0 0.0
2014-Jul-23 19:32N 51°27' E 003°43'0 0.0
2014-Jul-23 18:32N 51°27' E 003°43'0 0.0
2014-Jul-23 17:32N 51°27' E 003°43'0 0.0
2014-Jul-23 16:32N 51°27' E 003°43'0 0.0
2014-Jul-23 15:32N 51°27' E 003°43'0 0.0
2014-Jul-23 14:32N 51°27' E 003°43'0 0.0
2014-Jul-23 13:32N 51°27' E 003°43'0 0.0
2014-Jul-23 12:32N 51°27' E 003°43'0 0.0
2014-Jul-23 11:32N 51°27' E 003°43'0 0.0
2014-Jul-23 10:29N 51°27' E 003°43'0 0.0
2014-Jul-23 09:32N 51°27' E 003°43'2 1.7
2014-Jul-23 08:34N 51°27' E 003°41'1212.0
2014-Jul-23 07:33N 51°24' E 003°22'1210.9
2014-Jul-23 06:28N 51°24' E 003°03'9 9.6
2014-Jul-23 05:33N 51°22' E 002°50'9 9.1
2014-Jul-23 04:34N 51°22' E 002°35'9 9.2
2014-Jul-23 03:33N 51°19' E 002°21'10 9.8
2014-Jul-23 02:33N 51°14' E 002°07'1110.2
2014-Jul-23 01:31N 51°09' E 001°53'1010.5
2014-Jul-23 00:33N 51°02' E 001°41'1111.3
2014-Jul-22 23:33N 50°54' E 001°29'  
2014-Jul-20 14:27N 50°04' E 001°23'24 0.7
2014-Jul-19 05:34N 50°19' E 000°54'10 8.9
2014-Jul-19 04:26N 50°26' E 000°44'8 9.0
2014-Jul-19 03:34N 50°34' E 000°41'7 7.0
2014-Jul-19 02:33N 50°40' E 000°48'9 7.8
2014-Jul-19 01:25N 50°45' E 000°60'9 9.4
2014-Jul-19 00:24N 50°51' E 001°11'911.2
2014-Jul-18 23:34N 50°58' E 001°22'1211.7
2014-Jul-18 22:33N 51°06' E 001°35'10 9.9
2014-Jul-18 21:34N 51°14' E 001°45'8 8.0
2014-Jul-18 20:34N 51°20' E 001°52'8 7.8
2014-Jul-18 19:34N 51°27' E 001°58'8 7.8
2014-Jul-18 18:33N 51°33' E 002°06'8 7.9
2014-Jul-18 17:34N 51°39' E 002°14'  

Dump ship's entire track history